sensor_id;sensor_type;location;lat;lon;timestamp;pressure;altitude;pressure_sealevel;temperature;humidity
46347;BME280;32057;47.830;19.046;2024-01-30T00:02:15;102654.41;;;-4.40;100.00
46347;BME280;32057;47.830;19.046;2024-01-30T00:04:40;102643.31;;;-4.33;100.00
46347;BME280;32057;47.830;19.046;2024-01-30T00:07:05;102651.09;;;-4.17;100.00
46347;BME280;32057;47.830;19.046;2024-01-30T00:09:31;102646.00;;;-4.17;100.00
46347;BME280;32057;47.830;19.046;2024-01-30T00:11:56;102655.47;;;-4.09;100.00
46347;BME280;32057;47.830;19.046;2024-01-30T00:14:22;102651.97;;;-4.10;100.00
46347;BME280;32057;47.830;19.046;2024-01-30T00:16:48;102651.78;;;-4.04;100.00
46347;BME280;32057;47.830;19.046;2024-01-30T00:19:13;102651.78;;;-3.97;100.00
46347;BME280;32057;47.830;19.046;2024-01-30T00:21:39;102647.22;;;-3.92;100.00
46347;BME280;32057;47.830;19.046;2024-01-30T00:24:04;102652.13;;;-3.87;100.00
46347;BME280;32057;47.830;19.046;2024-01-30T00:26:30;102655.09;;;-4.05;100.00
46347;BME280;32057;47.830;19.046;2024-01-30T00:28:55;102658.19;;;-4.22;100.00
46347;BME280;32057;47.830;19.046;2024-01-30T00:31:20;102658.38;;;-4.21;100.00
46347;BME280;32057;47.830;19.046;2024-01-30T00:33:46;102657.63;;;-4.12;100.00
46347;BME280;32057;47.830;19.046;2024-01-30T00:36:11;102659.41;;;-4.04;100.00
46347;BME280;32057;47.830;19.046;2024-01-30T00:38:37;102654.72;;;-4.08;100.00
46347;BME280;32057;47.830;19.046;2024-01-30T00:41:02;102654.16;;;-4.06;100.00
46347;BME280;32057;47.830;19.046;2024-01-30T00:43:28;102651.22;;;-4.02;100.00
46347;BME280;32057;47.830;19.046;2024-01-30T00:45:54;102664.13;;;-4.00;100.00
46347;BME280;32057;47.830;19.046;2024-01-30T00:48:20;102656.34;;;-4.09;100.00
46347;BME280;32057;47.830;19.046;2024-01-30T00:50:45;102649.81;;;-4.14;100.00
46347;BME280;32057;47.830;19.046;2024-01-30T00:53:11;102657.28;;;-4.30;100.00
46347;BME280;32057;47.830;19.046;2024-01-30T00:55:36;102651.50;;;-4.36;100.00
46347;BME280;32057;47.830;19.046;2024-01-30T00:58:02;102648.94;;;-4.29;100.00
46347;BME280;32057;47.830;19.046;2024-01-30T01:00:28;102648.38;;;-4.26;100.00
46347;BME280;32057;47.830;19.046;2024-01-30T01:03:00;102651.47;;;-4.22;100.00
46347;BME280;32057;47.830;19.046;2024-01-30T01:05:25;102648.53;;;-4.17;100.00
46347;BME280;32057;47.830;19.046;2024-01-30T01:07:51;102644.72;;;-4.14;100.00
46347;BME280;32057;47.830;19.046;2024-01-30T01:10:17;102641.28;;;-4.07;100.00
46347;BME280;32057;47.830;19.046;2024-01-30T01:12:43;102646.00;;;-4.03;100.00
46347;BME280;32057;47.830;19.046;2024-01-30T01:15:08;102642.88;;;-4.01;100.00
46347;BME280;32057;47.830;19.046;2024-01-30T01:17:37;102639.06;;;-3.97;100.00
46347;BME280;32057;47.830;19.046;2024-01-30T01:20:04;102634.69;;;-3.98;100.00
46347;BME280;32057;47.830;19.046;2024-01-30T01:22:30;102632.72;;;-4.01;100.00
46347;BME280;32057;47.830;19.046;2024-01-30T01:24:56;102635.28;;;-4.08;100.00
46347;BME280;32057;47.830;19.046;2024-01-30T01:27:21;102637.66;;;-4.09;100.00
46347;BME280;32057;47.830;19.046;2024-01-30T01:29:46;102641.09;;;-4.16;100.00
46347;BME280;32057;47.830;19.046;2024-01-30T01:32:12;102637.88;;;-4.36;100.00
46347;BME280;32057;47.830;19.046;2024-01-30T01:34:37;102641.16;;;-4.52;100.00
46347;BME280;32057;47.830;19.046;2024-01-30T01:37:03;102643.69;;;-4.73;100.00
46347;BME280;32057;47.830;19.046;2024-01-30T01:39:28;102645.72;;;-4.71;100.00
46347;BME280;32057;47.830;19.046;2024-01-30T01:41:53;102645.19;;;-4.61;100.00
46347;BME280;32057;47.830;19.046;2024-01-30T01:44:18;102645.16;;;-4.54;100.00
46347;BME280;32057;47.830;19.046;2024-01-30T01:46:44;102638.44;;;-4.46;100.00
46347;BME280;32057;47.830;19.046;2024-01-30T01:49:10;102643.50;;;-4.46;100.00
46347;BME280;32057;47.830;19.046;2024-01-30T01:51:36;102640.97;;;-4.53;100.00
46347;BME280;32057;47.830;19.046;2024-01-30T01:54:04;102632.63;;;-4.52;100.00
46347;BME280;32057;47.830;19.046;2024-01-30T01:56:30;102631.19;;;-4.50;100.00
46347;BME280;32057;47.830;19.046;2024-01-30T01:58:59;102631.19;;;-4.43;100.00
46347;BME280;32057;47.830;19.046;2024-01-30T02:01:26;102630.81;;;-4.39;100.00
46347;BME280;32057;47.830;19.046;2024-01-30T02:03:52;102629.72;;;-4.48;100.00
46347;BME280;32057;47.830;19.046;2024-01-30T02:06:18;102631.56;;;-4.47;100.00
46347;BME280;32057;47.830;19.046;2024-01-30T02:08:43;102637.72;;;-4.52;100.00
46347;BME280;32057;47.830;19.046;2024-01-30T02:11:09;102638.63;;;-4.66;100.00
46347;BME280;32057;47.830;19.046;2024-01-30T02:13:35;102635.00;;;-4.83;100.00
46347;BME280;32057;47.830;19.046;2024-01-30T02:16:01;102630.63;;;-4.84;100.00
46347;BME280;32057;47.830;19.046;2024-01-30T02:18:26;102638.09;;;-4.78;100.00
46347;BME280;32057;47.830;19.046;2024-01-30T02:20:53;102633.16;;;-4.69;100.00
46347;BME280;32057;47.830;19.046;2024-01-30T02:23:20;102623.56;;;-4.65;100.00
46347;BME280;32057;47.830;19.046;2024-01-30T02:25:45;102625.22;;;-4.65;100.00
46347;BME280;32057;47.830;19.046;2024-01-30T02:28:14;102627.53;;;-4.60;100.00
46347;BME280;32057;47.830;19.046;2024-01-30T02:30:40;102627.53;;;-4.60;100.00
46347;BME280;32057;47.830;19.046;2024-01-30T02:33:05;102623.56;;;-4.57;100.00
46347;BME280;32057;47.830;19.046;2024-01-30T02:35:31;102627.75;;;-4.51;100.00
46347;BME280;32057;47.830;19.046;2024-01-30T02:37:56;102631.56;;;-4.47;100.00
46347;BME280;32057;47.830;19.046;2024-01-30T02:40:21;102625.91;;;-4.45;100.00
46347;BME280;32057;47.830;19.046;2024-01-30T02:42:47;102623.56;;;-4.57;100.00
46347;BME280;32057;47.830;19.046;2024-01-30T02:45:12;102625.91;;;-4.73;100.00
46347;BME280;32057;47.830;19.046;2024-01-30T02:47:38;102627.38;;;-4.83;100.00
46347;BME280;32057;47.830;19.046;2024-01-30T02:50:04;102622.50;;;-4.81;100.00
46347;BME280;32057;47.830;19.046;2024-01-30T02:52:30;102619.59;;;-4.77;100.00
46347;BME280;32057;47.830;19.046;2024-01-30T02:54:55;102627.56;;;-4.74;100.00
46347;BME280;32057;47.830;19.046;2024-01-30T02:57:20;102625.91;;;-4.73;100.00
46347;BME280;32057;47.830;19.046;2024-01-30T02:59:46;102625.75;;;-4.75;100.00
46347;BME280;32057;47.830;19.046;2024-01-30T03:02:11;102631.19;;;-4.72;100.00
46347;BME280;32057;47.830;19.046;2024-01-30T03:04:36;102629.53;;;-4.71;100.00
46347;BME280;32057;47.830;19.046;2024-01-30T03:07:02;102624.66;;;-4.70;100.00
46347;BME280;32057;47.830;19.046;2024-01-30T03:09:27;102634.09;;;-4.69;100.00
46347;BME280;32057;47.830;19.046;2024-01-30T03:11:52;102633.72;;;-4.72;100.00
46347;BME280;32057;47.830;19.046;2024-01-30T03:14:17;102633.56;;;-4.81;100.00
46347;BME280;32057;47.830;19.046;2024-01-30T03:16:43;102628.13;;;-4.76;100.00
46347;BME280;32057;47.830;19.046;2024-01-30T03:19:08;102631.72;;;-4.82;100.00
46347;BME280;32057;47.830;19.046;2024-01-30T03:21:34;102629.34;;;-5.16;100.00
46347;BME280;32057;47.830;19.046;2024-01-30T03:23:59;102638.78;;;-5.15;100.00
46347;BME280;32057;47.830;19.046;2024-01-30T03:26:25;102633.13;;;-5.20;100.00
46347;BME280;32057;47.830;19.046;2024-01-30T03:28:50;102627.72;;;-5.23;100.00
46347;BME280;32057;47.830;19.046;2024-01-30T03:31:16;102630.44;;;-5.14;100.00
46347;BME280;32057;47.830;19.046;2024-01-30T03:33:41;102638.59;;;-5.09;100.00
46347;BME280;32057;47.830;19.046;2024-01-30T03:36:07;102628.66;;;-5.01;100.00
46347;BME280;32057;47.830;19.046;2024-01-30T03:38:33;102626.66;;;-4.96;100.00
46347;BME280;32057;47.830;19.046;2024-01-30T03:40:58;102627.53;;;-4.95;100.00
46347;BME280;32057;47.830;19.046;2024-01-30T03:43:24;102622.47;;;-4.88;100.00
46347;BME280;32057;47.830;19.046;2024-01-30T03:45:49;102620.47;;;-4.98;100.00
46347;BME280;32057;47.830;19.046;2024-01-30T03:48:14;102620.44;;;-5.20;100.00
46347;BME280;32057;47.830;19.046;2024-01-30T03:50:40;102613.75;;;-5.19;100.00
46347;BME280;32057;47.830;19.046;2024-01-30T03:53:05;102610.81;;;-5.36;100.00
46347;BME280;32057;47.830;19.046;2024-01-30T03:55:30;102612.03;;;-5.47;100.00
46347;BME280;32057;47.830;19.046;2024-01-30T03:57:56;102610.78;;;-5.44;100.00
46347;BME280;32057;47.830;19.046;2024-01-30T04:00:21;102612.81;;;-5.34;100.00
46347;BME280;32057;47.830;19.046;2024-01-30T04:02:46;102612.28;;;-5.24;100.00
46347;BME280;32057;47.830;19.046;2024-01-30T04:05:12;102618.81;;;-5.12;100.00
46347;BME280;32057;47.830;19.046;2024-01-30T04:07:37;102617.03;;;-5.06;100.00
46347;BME280;32057;47.830;19.046;2024-01-30T04:10:02;102619.22;;;-5.09;100.00
46347;BME280;32057;47.830;19.046;2024-01-30T04:12:31;102618.66;;;-5.21;100.00
46347;BME280;32057;47.830;19.046;2024-01-30T04:14:56;102618.44;;;-5.22;100.00
46347;BME280;32057;47.830;19.046;2024-01-30T04:17:21;102615.56;;;-5.25;100.00
46347;BME280;32057;47.830;19.046;2024-01-30T04:19:47;102618.28;;;-5.31;100.00
46347;BME280;32057;47.830;19.046;2024-01-30T04:22:12;102616.06;;;-5.42;100.00
46347;BME280;32057;47.830;19.046;2024-01-30T04:24:37;102627.03;;;-5.70;100.00
46347;BME280;32057;47.830;19.046;2024-01-30T04:27:03;102626.28;;;-5.76;100.00
46347;BME280;32057;47.830;19.046;2024-01-30T04:29:28;102626.81;;;-5.79;100.00
46347;BME280;32057;47.830;19.046;2024-01-30T04:31:54;102630.97;;;-5.80;100.00
46347;BME280;32057;47.830;19.046;2024-01-30T04:34:19;102625.94;;;-5.72;100.00
46347;BME280;32057;47.830;19.046;2024-01-30T04:36:44;102632.44;;;-5.67;100.00
46347;BME280;32057;47.830;19.046;2024-01-30T04:39:10;102630.84;;;-5.67;100.00
46347;BME280;32057;47.830;19.046;2024-01-30T04:41:36;102638.97;;;-5.69;100.00
46347;BME280;32057;47.830;19.046;2024-01-30T04:44:01;102642.97;;;-5.64;100.00
46347;BME280;32057;47.830;19.046;2024-01-30T04:46:26;102639.91;;;-5.69;100.00
46347;BME280;32057;47.830;19.046;2024-01-30T04:48:52;102641.16;;;-5.65;100.00
46347;BME280;32057;47.830;19.046;2024-01-30T04:51:17;102638.84;;;-5.56;100.00
46347;BME280;32057;47.830;19.046;2024-01-30T04:53:42;102646.97;;;-5.66;100.00
46347;BME280;32057;47.830;19.046;2024-01-30T04:56:08;102640.41;;;-5.71;100.00
46347;BME280;32057;47.830;19.046;2024-01-30T04:58:33;102649.34;;;-5.61;100.00
46347;BME280;32057;47.830;19.046;2024-01-30T05:00:58;102646.13;;;-5.52;100.00
46347;BME280;32057;47.830;19.046;2024-01-30T05:03:24;102651.53;;;-5.49;100.00
46347;BME280;32057;47.830;19.046;2024-01-30T05:05:49;102649.94;;;-5.49;100.00
46347;BME280;32057;47.830;19.046;2024-01-30T05:08:15;102658.25;;;-5.50;100.00
46347;BME280;32057;47.830;19.046;2024-01-30T05:10:40;102654.47;;;-5.46;100.00
46347;BME280;32057;47.830;19.046;2024-01-30T05:13:05;102654.50;;;-5.39;100.00
46347;BME280;32057;47.830;19.046;2024-01-30T05:15:31;102651.06;;;-5.32;100.00
46347;BME280;32057;47.830;19.046;2024-01-30T05:17:56;102655.03;;;-5.34;100.00
46347;BME280;32057;47.830;19.046;2024-01-30T05:20:21;102662.47;;;-5.36;100.00
46347;BME280;32057;47.830;19.046;2024-01-30T05:22:47;102661.03;;;-5.34;100.00
46347;BME280;32057;47.830;19.046;2024-01-30T05:25:13;102663.94;;;-5.31;100.00
46347;BME280;32057;47.830;19.046;2024-01-30T05:27:38;102667.00;;;-5.33;100.00
46347;BME280;32057;47.830;19.046;2024-01-30T05:30:06;102664.56;;;-5.61;100.00
46347;BME280;32057;47.830;19.046;2024-01-30T05:32:31;102665.63;;;-5.66;100.00
46347;BME280;32057;47.830;19.046;2024-01-30T05:34:57;102663.97;;;-5.65;100.00
46347;BME280;32057;47.830;19.046;2024-01-30T05:37:22;102665.06;;;-5.63;100.00
46347;BME280;32057;47.830;19.046;2024-01-30T05:39:47;102664.38;;;-5.62;100.00
46347;BME280;32057;47.830;19.046;2024-01-30T05:42:13;102665.66;;;-5.58;100.00
46347;BME280;32057;47.830;19.046;2024-01-30T05:44:38;102671.97;;;-5.62;100.00
46347;BME280;32057;47.830;19.046;2024-01-30T05:47:03;102674.72;;;-5.61;100.00
46347;BME280;32057;47.830;19.046;2024-01-30T05:49:29;102667.84;;;-5.54;100.00
46347;BME280;32057;47.830;19.046;2024-01-30T05:51:54;102660.09;;;-5.49;100.00
46347;BME280;32057;47.830;19.046;2024-01-30T05:54:19;102668.19;;;-5.58;100.00
46347;BME280;32057;47.830;19.046;2024-01-30T05:56:45;102672.03;;;-5.48;100.00
46347;BME280;32057;47.830;19.046;2024-01-30T05:59:10;102675.16;;;-5.43;100.00
46347;BME280;32057;47.830;19.046;2024-01-30T06:01:35;102674.97;;;-5.37;100.00
46347;BME280;32057;47.830;19.046;2024-01-30T06:04:01;102668.09;;;-5.38;100.00
46347;BME280;32057;47.830;19.046;2024-01-30T06:06:26;102662.28;;;-5.37;100.00
46347;BME280;32057;47.830;19.046;2024-01-30T06:08:52;102663.38;;;-5.35;100.00
46347;BME280;32057;47.830;19.046;2024-01-30T06:11:20;102671.16;;;-5.41;100.00
46347;BME280;32057;47.830;19.046;2024-01-30T06:13:45;102671.31;;;-5.40;100.00
46347;BME280;32057;47.830;19.046;2024-01-30T06:16:12;102664.81;;;-5.37;100.00
46347;BME280;32057;47.830;19.046;2024-01-30T06:18:37;102665.34;;;-5.40;100.00
46347;BME280;32057;47.830;19.046;2024-01-30T06:21:04;102662.28;;;-5.37;100.00
46347;BME280;32057;47.830;19.046;2024-01-30T06:23:29;102665.19;;;-5.34;100.00
46347;BME280;32057;47.830;19.046;2024-01-30T06:25:55;102666.47;;;-5.31;100.00
46347;BME280;32057;47.830;19.046;2024-01-30T06:28:20;102674.44;;;-5.35;100.00
46347;BME280;32057;47.830;19.046;2024-01-30T06:30:45;102670.97;;;-5.43;100.00
46347;BME280;32057;47.830;19.046;2024-01-30T06:33:12;102671.53;;;-5.38;100.00
46347;BME280;32057;47.830;19.046;2024-01-30T06:35:38;102669.19;;;-5.29;100.00
46347;BME280;32057;47.830;19.046;2024-01-30T06:38:05;102671.16;;;-5.34;100.00
46347;BME280;32057;47.830;19.046;2024-01-30T06:40:30;102680.69;;;-5.60;100.00
46347;BME280;32057;47.830;19.046;2024-01-30T06:42:56;102673.47;;;-5.57;100.00
46347;BME280;32057;47.830;19.046;2024-01-30T06:45:21;102677.09;;;-5.55;100.00
46347;BME280;32057;47.830;19.046;2024-01-30T06:47:46;102679.28;;;-5.51;100.00
46347;BME280;32057;47.830;19.046;2024-01-30T06:50:12;102678.94;;;-5.47;100.00
46347;BME280;32057;47.830;19.046;2024-01-30T06:52:37;102673.91;;;-5.32;100.00
46347;BME280;32057;47.830;19.046;2024-01-30T06:55:02;102671.41;;;-5.25;100.00
46347;BME280;32057;47.830;19.046;2024-01-30T06:57:28;102673.94;;;-5.18;100.00
46347;BME280;32057;47.830;19.046;2024-01-30T06:59:57;102667.97;;;-5.04;100.00
46347;BME280;32057;47.830;19.046;2024-01-30T07:02:23;102671.44;;;-4.96;100.00
46347;BME280;32057;47.830;19.046;2024-01-30T07:04:48;102675.81;;;-4.88;100.00
46347;BME280;32057;47.830;19.046;2024-01-30T07:07:14;102677.25;;;-4.76;100.00
46347;BME280;32057;47.830;19.046;2024-01-30T07:09:40;102669.66;;;-4.69;100.00
46347;BME280;32057;47.830;19.046;2024-01-30T07:12:06;102676.91;;;-4.65;100.00
46347;BME280;32057;47.830;19.046;2024-01-30T07:14:31;102683.06;;;-4.55;100.00
46347;BME280;32057;47.830;19.046;2024-01-30T07:16:57;102681.63;;;-4.46;100.00
46347;BME280;32057;47.830;19.046;2024-01-30T07:19:22;102673.66;;;-4.35;100.00
46347;BME280;32057;47.830;19.046;2024-01-30T07:21:47;102673.81;;;-4.26;100.00
46347;BME280;32057;47.830;19.046;2024-01-30T07:24:13;102673.06;;;-4.18;100.00
46347;BME280;32057;47.830;19.046;2024-01-30T07:26:38;102675.06;;;-4.08;100.00
46347;BME280;32057;47.830;19.046;2024-01-30T07:29:03;102673.22;;;-3.95;100.00
46347;BME280;32057;47.830;19.046;2024-01-30T07:31:29;102678.63;;;-3.85;100.00
46347;BME280;32057;47.830;19.046;2024-01-30T07:33:54;102667.88;;;-3.75;100.00
46347;BME280;32057;47.830;19.046;2024-01-30T07:36:20;102672.41;;;-3.65;100.00
46347;BME280;32057;47.830;19.046;2024-01-30T07:38:45;102667.97;;;-3.52;100.00
46347;BME280;32057;47.830;19.046;2024-01-30T07:41:10;102676.28;;;-3.38;100.00
46347;BME280;32057;47.830;19.046;2024-01-30T07:43:37;102669.84;;;-3.28;100.00
46347;BME280;32057;47.830;19.046;2024-01-30T07:46:03;102668.72;;;-3.15;100.00
46347;BME280;32057;47.830;19.046;2024-01-30T07:48:28;102668.06;;;-3.06;100.00
46347;BME280;32057;47.830;19.046;2024-01-30T07:50:53;102665.66;;;-2.97;100.00
46347;BME280;32057;47.830;19.046;2024-01-30T07:53:19;102673.78;;;-2.85;100.00
46347;BME280;32057;47.830;19.046;2024-01-30T07:56:00;102670.25;;;-2.78;100.00
46347;BME280;32057;47.830;19.046;2024-01-30T07:58:25;102663.69;;;-2.76;100.00
46347;BME280;32057;47.830;19.046;2024-01-30T08:00:52;102669.69;;;-2.76;100.00
46347;BME280;32057;47.830;19.046;2024-01-30T08:03:18;102667.91;;;-2.77;100.00
46347;BME280;32057;47.830;19.046;2024-01-30T08:05:43;102666.19;;;-2.69;100.00
46347;BME280;32057;47.830;19.046;2024-01-30T08:08:09;102662.09;;;-2.60;100.00
46347;BME280;32057;47.830;19.046;2024-01-30T08:10:34;102674.91;;;-2.44;100.00
46347;BME280;32057;47.830;19.046;2024-01-30T08:12:59;102679.38;;;-2.34;100.00
46347;BME280;32057;47.830;19.046;2024-01-30T08:15:25;102676.38;;;-2.23;100.00
46347;BME280;32057;47.830;19.046;2024-01-30T08:17:50;102676.78;;;-2.11;100.00
46347;BME280;32057;47.830;19.046;2024-01-30T08:20:20;102674.81;;;-1.98;100.00
46347;BME280;32057;47.830;19.046;2024-01-30T08:22:46;102666.28;;;-1.83;100.00
46347;BME280;32057;47.830;19.046;2024-01-30T08:25:11;102661.91;;;-1.68;100.00
46347;BME280;32057;47.830;19.046;2024-01-30T08:27:36;102672.19;;;-1.59;100.00
46347;BME280;32057;47.830;19.046;2024-01-30T08:30:05;102664.19;;;-1.46;100.00
46347;BME280;32057;47.830;19.046;2024-01-30T08:32:31;102663.69;;;-1.35;100.00
46347;BME280;32057;47.830;19.046;2024-01-30T08:34:56;102667.03;;;-1.27;100.00
46347;BME280;32057;47.830;19.046;2024-01-30T08:37:22;102663.22;;;-1.15;100.00
46347;BME280;32057;47.830;19.046;2024-01-30T08:39:47;102658.75;;;-1.09;100.00
46347;BME280;32057;47.830;19.046;2024-01-30T08:42:12;102659.72;;;-0.99;100.00
46347;BME280;32057;47.830;19.046;2024-01-30T08:44:38;102655.88;;;-0.87;100.00
46347;BME280;32057;47.830;19.046;2024-01-30T08:47:04;102655.47;;;-0.74;100.00
46347;BME280;32057;47.830;19.046;2024-01-30T08:49:29;102654.94;;;-0.63;100.00
46347;BME280;32057;47.830;19.046;2024-01-30T08:51:54;102650.34;;;-0.50;100.00
46347;BME280;32057;47.830;19.046;2024-01-30T08:54:20;102651.59;;;-0.37;100.00
46347;BME280;32057;47.830;19.046;2024-01-30T08:56:45;102651.94;;;-0.26;100.00
46347;BME280;32057;47.830;19.046;2024-01-30T08:59:10;102647.00;;;-0.15;100.00
46347;BME280;32057;47.830;19.046;2024-01-30T09:01:36;102644.59;;;-0.05;100.00
46347;BME280;32057;47.830;19.046;2024-01-30T09:04:01;102643.41;;;0.00;100.00
46347;BME280;32057;47.830;19.046;2024-01-30T09:06:27;102646.25;;;0.12;100.00
46347;BME280;32057;47.830;19.046;2024-01-30T09:08:53;102646.28;;;0.21;100.00
46347;BME280;32057;47.830;19.046;2024-01-30T09:11:19;102640.72;;;0.25;100.00
46347;BME280;32057;47.830;19.046;2024-01-30T09:13:44;102641.78;;;0.35;100.00
46347;BME280;32057;47.830;19.046;2024-01-30T09:16:09;102644.81;;;0.40;100.00
46347;BME280;32057;47.830;19.046;2024-01-30T09:18:35;102645.53;;;0.48;100.00
46347;BME280;32057;47.830;19.046;2024-01-30T09:21:00;102645.41;;;0.55;100.00
46347;BME280;32057;47.830;19.046;2024-01-30T09:23:27;102647.66;;;0.61;100.00
46347;BME280;32057;47.830;19.046;2024-01-30T09:25:53;102649.47;;;0.70;100.00
46347;BME280;32057;47.830;19.046;2024-01-30T09:28:18;102646.88;;;0.79;100.00
46347;BME280;32057;47.830;19.046;2024-01-30T09:30:43;102631.47;;;0.88;100.00
46347;BME280;32057;47.830;19.046;2024-01-30T09:33:09;102638.28;;;0.96;100.00
46347;BME280;32057;47.830;19.046;2024-01-30T09:35:35;102640.03;;;1.06;100.00
46347;BME280;32057;47.830;19.046;2024-01-30T09:38:01;102643.78;;;1.18;100.00
46347;BME280;32057;47.830;19.046;2024-01-30T09:40:27;102646.75;;;1.31;100.00
46347;BME280;32057;47.830;19.046;2024-01-30T09:42:53;102638.56;;;1.35;100.00
46347;BME280;32057;47.830;19.046;2024-01-30T09:45:19;102637.97;;;1.38;100.00
46347;BME280;32057;47.830;19.046;2024-01-30T09:47:45;102643.69;;;1.44;100.00
46347;BME280;32057;47.830;19.046;2024-01-30T09:50:12;102639.13;;;1.50;100.00
46347;BME280;32057;47.830;19.046;2024-01-30T09:52:38;102646.78;;;1.59;100.00
46347;BME280;32057;47.830;19.046;2024-01-30T09:55:05;102636.03;;;1.63;100.00
46347;BME280;32057;47.830;19.046;2024-01-30T09:57:30;102639.31;;;1.71;100.00
46347;BME280;32057;47.830;19.046;2024-01-30T09:59:56;102636.56;;;1.78;100.00
46347;BME280;32057;47.830;19.046;2024-01-30T10:02:22;102632.28;;;1.87;100.00
46347;BME280;32057;47.830;19.046;2024-01-30T10:04:51;102630.72;;;1.98;100.00
46347;BME280;32057;47.830;19.046;2024-01-30T10:07:20;102626.56;;;2.09;100.00
46347;BME280;32057;47.830;19.046;2024-01-30T10:09:46;102624.19;;;2.21;100.00
46347;BME280;32057;47.830;19.046;2024-01-30T10:12:12;102624.25;;;2.31;100.00
46347;BME280;32057;47.830;19.046;2024-01-30T10:14:41;102619.47;;;2.44;100.00
46347;BME280;32057;47.830;19.046;2024-01-30T10:17:10;102615.53;;;2.48;100.00
46347;BME280;32057;47.830;19.046;2024-01-30T10:19:40;102609.81;;;2.61;100.00
46347;BME280;32057;47.830;19.046;2024-01-30T10:22:05;102602.38;;;2.64;100.00
46347;BME280;32057;47.830;19.046;2024-01-30T10:24:32;102601.88;;;2.68;100.00
46347;BME280;32057;47.830;19.046;2024-01-30T10:26:58;102606.78;;;2.75;100.00
46347;BME280;32057;47.830;19.046;2024-01-30T10:29:24;102596.91;;;2.79;100.00
46347;BME280;32057;47.830;19.046;2024-01-30T10:32:00;102593.72;;;2.82;100.00
46347;BME280;32057;47.830;19.046;2024-01-30T10:34:26;102593.34;;;2.88;100.00
46347;BME280;32057;47.830;19.046;2024-01-30T10:36:59;102586.28;;;2.95;100.00
46347;BME280;32057;47.830;19.046;2024-01-30T10:39:29;102584.88;;;2.99;100.00
46347;BME280;32057;47.830;19.046;2024-01-30T10:41:56;102588.50;;;3.01;100.00
46347;BME280;32057;47.830;19.046;2024-01-30T10:44:25;102584.03;;;3.09;100.00
46347;BME280;32057;47.830;19.046;2024-01-30T10:46:58;102580.69;;;3.10;100.00
46347;BME280;32057;47.830;19.046;2024-01-30T10:49:25;102570.94;;;3.16;100.00
46347;BME280;32057;47.830;19.046;2024-01-30T10:51:52;102571.19;;;3.19;100.00
46347;BME280;32057;47.830;19.046;2024-01-30T10:54:17;102558.47;;;3.21;100.00
46347;BME280;32057;47.830;19.046;2024-01-30T10:56:44;102555.50;;;3.26;100.00
46347;BME280;32057;47.830;19.046;2024-01-30T10:59:10;102558.47;;;3.21;100.00
46347;BME280;32057;47.830;19.046;2024-01-30T11:01:38;102556.78;;;3.31;100.00
46347;BME280;32057;47.830;19.046;2024-01-30T11:04:04;102547.81;;;3.36;100.00
46347;BME280;32057;47.830;19.046;2024-01-30T11:06:29;102550.38;;;3.36;100.00
46347;BME280;32057;47.830;19.046;2024-01-30T11:09:05;102547.94;;;3.38;100.00
46347;BME280;32057;47.830;19.046;2024-01-30T11:11:51;102553.69;;;3.35;100.00
46347;BME280;32057;47.830;19.046;2024-01-30T11:14:26;102543.03;;;3.41;100.00
46347;BME280;32057;47.830;19.046;2024-01-30T11:16:51;102543.97;;;3.42;100.00
46347;BME280;32057;47.830;19.046;2024-01-30T11:19:24;102543.19;;;3.43;100.00
46347;BME280;32057;47.830;19.046;2024-01-30T11:21:52;102540.97;;;3.47;100.00
46347;BME280;32057;47.830;19.046;2024-01-30T11:24:22;102538.03;;;3.53;100.00
46347;BME280;32057;47.830;19.046;2024-01-30T11:27:00;102541.38;;;3.52;100.00
46347;BME280;32057;47.830;19.046;2024-01-30T11:29:29;102532.13;;;3.64;100.00
46347;BME280;32057;47.830;19.046;2024-01-30T11:31:56;102525.56;;;3.57;100.00
46347;BME280;32057;47.830;19.046;2024-01-30T11:34:21;102524.75;;;3.69;100.00
46347;BME280;32057;47.830;19.046;2024-01-30T11:36:58;102526.81;;;3.73;100.00
46347;BME280;32057;47.830;19.046;2024-01-30T11:39:25;102518.72;;;3.78;100.00
46347;BME280;32057;47.830;19.046;2024-01-30T11:41:52;102516.66;;;3.85;100.00
46347;BME280;32057;47.830;19.046;2024-01-30T11:44:19;102516.13;;;3.89;100.00
46347;BME280;32057;47.830;19.046;2024-01-30T11:46:47;102515.97;;;3.87;100.00
46347;BME280;32057;47.830;19.046;2024-01-30T11:49:12;102509.03;;;3.86;100.00
46347;BME280;32057;47.830;19.046;2024-01-30T11:51:38;102504.13;;;3.89;100.00
46347;BME280;32057;47.830;19.046;2024-01-30T11:54:03;102499.91;;;3.90;100.00
46347;BME280;32057;47.830;19.046;2024-01-30T11:56:28;102497.03;;;3.97;100.00
46347;BME280;32057;47.830;19.046;2024-01-30T11:58:54;102496.16;;;3.96;100.00
46347;BME280;32057;47.830;19.046;2024-01-30T12:01:20;102497.03;;;3.97;100.00
46347;BME280;32057;47.830;19.046;2024-01-30T12:03:52;102490.47;;;4.01;100.00
46347;BME280;32057;47.830;19.046;2024-01-30T12:06:17;102490.84;;;4.05;100.00
46347;BME280;32057;47.830;19.046;2024-01-30T12:08:42;102487.22;;;4.03;100.00
46347;BME280;32057;47.830;19.046;2024-01-30T12:11:08;102489.53;;;4.10;100.00
46347;BME280;32057;47.830;19.046;2024-01-30T12:13:33;102487.72;;;4.09;100.00
46347;BME280;32057;47.830;19.046;2024-01-30T12:16:00;102481.28;;;4.14;100.00
46347;BME280;32057;47.830;19.046;2024-01-30T12:18:26;102479.72;;;4.16;100.00
46347;BME280;32057;47.830;19.046;2024-01-30T12:21:00;102478.84;;;4.16;100.00
46347;BME280;32057;47.830;19.046;2024-01-30T12:23:27;102477.16;;;4.16;100.00
46347;BME280;32057;47.830;19.046;2024-01-30T12:25:52;102477.16;;;4.16;100.00
46347;BME280;32057;47.830;19.046;2024-01-30T12:28:18;102470.31;;;4.17;100.00